Aérodrome :
LOGIN :

S'inscrire | Disclaimer

   EN    FR    IT 

 










Légende :    VFR   VFR Marginal   IFR   IFR Intensif   IFR Très Intensif
Visi : 
Plafond : 
>= 8 km
>= 3000ft
5 à 8 km
1000 à 3000 ft
1500m à 5 km
500 à 1000 ft
800 à 1500m
200 à 500 ft
< 800m
< 200 ft
Symboles :   Orages  Brouillard  Fortes neiges  Fortes précipitations  Vent > 20 kt
SIGMETs :   Divers  Orages  Givrage  Turbulence  Onde Orograph.  Cendres Volcan.







- Altitude de l'aérodrome : 84 ft
- Voir les cartes d'approche


LFBC - Cazaux

DERNIER METAR :
  • 202330Z AUTO 36009KT CAVOK 17/12 Q1018

METARs EXPIRÉS :
  • 202300Z AUTO 35007KT CAVOK 16/12 Q1018
  • 202230Z AUTO 35008KT CAVOK 16/12 Q1018 NOSIG
  • 202200Z AUTO 34008KT CAVOK 16/12 Q1018 NOSIG
  • 202130Z AUTO 34007KT CAVOK 16/11 Q1018 NOSIG
  • 202100Z AUTO 33006KT CAVOK 16/11 Q1018 NOSIG

TAF TAF LFBC
Valide du 20 à 21h jusqu'au 21 à 21h UTC


202000Z 2021/2121 34007KT CAVOK
TEMPO 2106/2114 4000 RA
Pas de NOTAMs connus pour ce terrain.
1 SIGMET publié pour la FIR Bordeaux (LFBB) :
 
Orages noyés dans la masse
LFBB SIGMET 6 VALID 202300/210300 LFPW
LFBB BORDEAUX FIR/UIR EMBD TS FCST WI N4230 E00045 - N4245 W00045 - N4300 W00030 - N4245 E00100 - N4230 E00045 TOP FL310 MOV NE 10KT WKN=



MET'MAP, la Météo Aéronautique d'un coup d'oeil ! - Copyright ORBIFLY Décembre 2007 - Disclaimer

ORBIFLY MET'MAP TEAM :

Programmation & Développement : Alexandra Zaïnal
Conception & Développement : Baudouin d'Aumeries
Co-Programmation & Développement : Marc-Olivier Méhu
Soutien technique & logistique : Manuel Goepfert

Contact : metmap@orbifly.com




SOURCES & CREDITS :

   NOAA